createdAt,value
2019-05-17T00:01:33.810Z,99104.06
2019-05-17T00:04:04.263Z,99095.86
2019-05-17T00:06:36.808Z,99101.94
2019-05-17T00:09:26.816Z,99101.56
2019-05-17T00:12:09.418Z,99103.76
2019-05-17T00:14:39.827Z,99103.31
2019-05-17T00:17:10.298Z,99090.54
2019-05-17T00:19:40.702Z,99087.17
2019-05-17T00:22:11.275Z,99088.94
2019-05-17T00:24:41.660Z,99091.52
2019-05-17T00:27:12.176Z,99083.03
2019-05-17T00:29:42.576Z,99071.89
2019-05-17T00:32:13.047Z,99074.09
2019-05-17T00:35:02.968Z,99071.13
2019-05-17T00:37:33.397Z,99070.33
2019-05-17T00:40:03.905Z,99075.86
2019-05-17T00:42:34.374Z,99075.44
2019-05-17T00:45:06.768Z,99068.20
2019-05-17T00:47:48.719Z,99071.17
2019-05-17T00:50:19.256Z,99071.13
2019-05-17T00:52:49.701Z,99067.14
2019-05-17T00:55:26.803Z,99061.66
2019-05-17T00:58:09.542Z,99063.37
2019-05-17T01:00:40.018Z,99058.26
2019-05-17T01:03:10.570Z,99062.09
2019-05-17T01:05:41.040Z,99065.45
2019-05-17T01:08:11.524Z,99062.59
2019-05-17T01:10:41.907Z,99066.49
2019-05-17T01:13:12.497Z,99064.41
2019-05-17T01:15:42.851Z,99057.54
2019-05-17T01:18:13.381Z,99060.53
2019-05-17T01:23:57.829Z,99053.41
2019-05-17T01:26:28.309Z,99048.34
2019-05-17T01:28:58.879Z,99047.00
2019-05-17T01:31:29.268Z,99043.18
2019-05-17T01:34:19.122Z,99044.38
2019-05-17T01:36:49.493Z,99044.81
2019-05-17T01:39:21.472Z,99049.94
2019-05-17T01:42:03.407Z,99044.05
2019-05-17T01:44:33.807Z,99041.53
2019-05-17T01:47:04.166Z,99033.06
2019-05-17T01:49:36.290Z,99038.13
2019-05-17T01:52:27.331Z,99031.80
2019-05-17T01:55:09.209Z,99033.08
2019-05-17T01:57:39.707Z,99030.58
2019-05-17T02:00:37.300Z,99029.30
2019-05-17T02:03:12.362Z,99026.76
2019-05-17T02:05:42.859Z,99027.60
2019-05-17T02:08:13.389Z,99028.88
2019-05-17T02:10:44.069Z,99026.33
2019-05-17T02:13:16.413Z,99020.80
2019-05-17T02:15:57.721Z,99022.08
2019-05-17T02:18:28.162Z,99019.09
2019-05-17T02:20:58.585Z,99021.27
2019-05-17T02:23:28.973Z,99023.29
2019-05-17T02:25:59.396Z,99019.44
2019-05-17T02:28:32.033Z,99021.88
2019-05-17T02:31:07.340Z,99018.11
2019-05-17T02:33:38.074Z,99009.23
2019-05-17T02:36:46.647Z,99006.73
2019-05-17T02:39:17.113Z,99010.58
2019-05-17T02:41:47.634Z,99011.05
2019-05-17T02:44:18.052Z,99005.52
2019-05-17T02:46:48.464Z,99005.31
2019-05-17T02:49:19.008Z,99014.34
2019-05-17T02:52:08.789Z,99007.22
2019-05-17T02:54:39.179Z,99005.08
2019-05-17T02:57:09.569Z,99011.41
2019-05-17T02:59:43.151Z,99010.58
2019-05-17T03:02:27.704Z,99009.30
2019-05-17T03:05:08.116Z,99011.05
2019-05-17T03:07:38.482Z,99009.39
2019-05-17T03:10:29.131Z,99012.83
2019-05-17T03:13:05.881Z,99010.32
2019-05-17T03:15:36.259Z,99018.00
2019-05-17T03:18:06.717Z,99019.27
2019-05-17T03:20:37.122Z,99015.84
2019-05-17T03:23:07.499Z,99020.55
2019-05-17T03:25:57.252Z,99018.78
2019-05-17T03:28:27.727Z,99022.91
2019-05-17T03:30:58.132Z,99024.33
2019-05-17T03:33:28.825Z,99024.14
2019-05-17T03:36:05.385Z,99021.69
2019-05-17T03:38:53.423Z,99027.28
2019-05-17T03:41:34.327Z,99028.27
2019-05-17T03:44:17.499Z,99030.95
2019-05-17T03:46:47.885Z,99037.34
2019-05-17T03:49:18.356Z,99033.63
2019-05-17T03:51:48.698Z,99037.03
2019-05-17T03:54:22.417Z,99043.31
2019-05-17T03:57:03.097Z,99044.08
2019-05-17T03:59:45.927Z,99045.69
2019-05-17T04:02:16.382Z,99048.96
2019-05-17T04:04:52.703Z,99051.10
2019-05-17T04:07:33.262Z,99049.52
2019-05-17T04:10:04.621Z,99055.53
2019-05-17T04:12:44.080Z,99048.23
2019-05-17T04:15:24.384Z,99049.76
2019-05-17T04:18:07.234Z,99052.67
2019-05-17T04:20:37.595Z,99052.56
2019-05-17T04:23:07.977Z,99050.37
2019-05-17T04:25:57.782Z,99049.02
2019-05-17T04:28:28.214Z,99050.09
2019-05-17T04:31:17.993Z,99053.36
2019-05-17T04:33:48.463Z,99049.09
2019-05-17T04:36:22.243Z,99052.84
2019-05-17T04:39:02.558Z,99051.88
2019-05-17T04:41:49.941Z,99050.91
2019-05-17T04:44:28.817Z,99052.84
2019-05-17T04:47:06.666Z,99048.77
2019-05-17T04:49:37.151Z,99051.06
2019-05-17T04:52:07.554Z,99050.84
2019-05-17T04:54:38.026Z,99046.30
2019-05-17T04:57:08.424Z,99052.49
2019-05-17T04:59:38.856Z,99051.13
2019-05-17T05:02:09.268Z,99059.02
2019-05-17T05:04:43.229Z,99061.53
2019-05-17T05:07:33.570Z,99057.17
2019-05-17T05:10:14.697Z,99065.77
2019-05-17T05:12:45.089Z,99057.24
2019-05-17T05:15:53.923Z,99056.61
2019-05-17T05:18:24.306Z,99061.45
2019-05-17T05:20:54.733Z,99058.59
2019-05-17T05:23:25.147Z,99061.84
2019-05-17T05:25:55.613Z,99062.55
2019-05-17T05:28:26.084Z,99063.95
2019-05-17T05:30:56.484Z,99058.18
2019-05-17T05:33:26.947Z,99055.48
2019-05-17T05:35:57.434Z,99054.13
2019-05-17T05:38:27.925Z,99059.16
2019-05-17T05:40:58.330Z,99055.08
2019-05-17T05:43:28.758Z,99055.31
2019-05-17T05:45:59.310Z,99055.87
2019-05-17T05:48:32.370Z,99059.77
2019-05-17T05:51:13.707Z,99061.05
2019-05-17T05:53:52.191Z,99059.41
2019-05-17T05:56:33.532Z,99064.63
2019-05-17T05:59:03.905Z,99066.14
2019-05-17T06:01:34.394Z,99066.40
2019-05-17T06:04:04.838Z,99065.62
2019-05-17T06:06:35.364Z,99058.45
2019-05-17T06:09:08.197Z,99061.67
2019-05-17T06:11:38.647Z,99065.83
2019-05-17T06:14:09.040Z,99067.27
2019-05-17T06:16:39.516Z,99065.98
2019-05-17T06:19:11.673Z,99053.69
2019-05-17T06:21:52.883Z,99061.67
2019-05-17T06:24:23.262Z,99051.67
2019-05-17T06:26:53.683Z,99057.52
2019-05-17T06:29:24.110Z,99055.75
2019-05-17T06:31:54.513Z,99061.97
2019-05-17T06:34:24.952Z,99063.09
2019-05-17T06:36:55.444Z,99061.75
2019-05-17T06:39:25.920Z,99059.77
2019-05-17T06:41:56.348Z,99066.30
2019-05-17T06:44:26.755Z,99057.80
2019-05-17T06:46:57.170Z,99052.72
2019-05-17T06:49:27.593Z,99061.02
2019-05-17T06:52:17.383Z,99058.81
2019-05-17T06:54:47.829Z,99058.04
2019-05-17T06:57:18.214Z,99058.66
2019-05-17T06:59:48.652Z,99059.29
2019-05-17T07:02:19.726Z,99045.80
2019-05-17T07:07:56.228Z,99053.00
2019-05-17T07:10:26.642Z,99058.41
2019-05-17T07:12:59.651Z,99061.18
2019-05-17T07:15:47.515Z,99051.81
2019-05-17T07:18:23.082Z,99058.26
2019-05-17T07:20:53.486Z,99054.34
2019-05-17T07:23:23.990Z,99052.77
2019-05-17T07:25:54.365Z,99058.28
2019-05-17T07:28:24.816Z,99050.74
2019-05-17T07:31:07.181Z,99055.70
2019-05-17T07:33:39.805Z,99061.51
2019-05-17T07:36:20.466Z,99057.69
2019-05-17T07:38:50.973Z,99056.00
2019-05-17T07:41:21.331Z,99063.78
2019-05-17T07:43:51.819Z,99057.98
2019-05-17T07:46:22.299Z,99054.11
2019-05-17T07:48:52.808Z,99054.56
2019-05-17T07:51:23.330Z,99052.10
2019-05-17T07:53:53.867Z,99048.72
2019-05-17T07:56:24.444Z,99045.30
2019-05-17T07:58:55.007Z,99049.81
2019-05-17T08:01:25.455Z,99042.32
2019-05-17T08:03:56.172Z,99045.05
2019-05-17T08:06:26.626Z,99044.73
2019-05-17T08:09:01.159Z,99040.17
2019-05-17T08:11:40.062Z,99039.40
2019-05-17T08:14:10.689Z,99042.23
2019-05-17T08:16:41.024Z,99038.31
2019-05-17T08:19:11.544Z,99035.14
2019-05-17T08:21:41.927Z,99030.77
2019-05-17T08:24:12.437Z,99021.20
2019-05-17T08:26:42.794Z,99025.20
2019-05-17T08:29:13.228Z,99022.48
2019-05-17T08:31:43.643Z,99017.22
2019-05-17T08:34:14.065Z,99015.29
2019-05-17T08:36:44.440Z,99020.37
2019-05-17T08:39:15.237Z,99017.42
2019-05-17T08:41:45.812Z,99013.23
2019-05-17T08:44:16.390Z,99016.44
2019-05-17T08:46:46.934Z,99018.23
2019-05-17T08:49:17.427Z,99015.63
2019-05-17T08:51:49.935Z,99010.61
2019-05-17T08:54:33.406Z,99006.88
2019-05-17T08:57:04.100Z,99003.31
2019-05-17T08:59:34.594Z,98997.30
2019-05-17T09:02:10.645Z,98995.79
2019-05-17T09:05:00.433Z,99002.16
2019-05-17T09:07:44.450Z,99002.70
2019-05-17T09:10:15.078Z,99008.22
2019-05-17T09:12:45.566Z,99002.92
2019-05-17T09:18:12.839Z,99004.41
2019-05-17T09:20:43.258Z,99002.34
2019-05-17T09:23:16.890Z,99009.04
2019-05-17T09:25:50.148Z,98998.03
2019-05-17T09:28:27.119Z,98994.19
2019-05-17T09:30:59.692Z,99000.66
2019-05-17T09:33:49.730Z,98997.53
2019-05-17T09:36:32.082Z,98996.73
2019-05-17T09:39:02.499Z,98998.14
2019-05-17T09:41:52.289Z,98990.17
2019-05-17T09:44:22.775Z,98995.95
2019-05-17T09:46:53.113Z,98985.61
2019-05-17T09:49:23.585Z,98991.84
2019-05-17T09:51:54.127Z,98987.70
2019-05-17T09:54:45.398Z,98982.88
2019-05-17T09:57:36.075Z,98982.53
2019-05-17T10:00:09.691Z,98986.20
2019-05-17T10:03:00.053Z,98980.81
2019-05-17T10:05:41.591Z,98979.44
2019-05-17T10:08:12.138Z,98978.22
2019-05-17T10:11:08.615Z,98975.05
2019-05-17T10:13:45.588Z,98973.20
2019-05-17T10:16:16.112Z,98968.02
2019-05-17T10:18:46.683Z,98968.92
2019-05-17T10:21:17.063Z,98964.02
2019-05-17T10:23:49.693Z,98973.52
2019-05-17T10:26:30.697Z,98965.25
2019-05-17T10:29:01.165Z,98960.08
2019-05-17T10:31:31.701Z,98959.27
2019-05-17T10:34:02.240Z,98966.73
2019-05-17T10:36:32.665Z,98966.30
2019-05-17T10:39:03.081Z,98960.38
2019-05-17T10:41:33.513Z,98965.81
2019-05-17T10:44:04.241Z,98953.84
2019-05-17T10:46:34.759Z,98949.63
2019-05-17T10:49:05.270Z,98947.63
2019-05-17T10:51:35.825Z,98951.64
2019-05-17T10:54:06.267Z,98960.40
2019-05-17T10:56:36.861Z,98959.17
2019-05-17T10:59:09.660Z,98955.72
2019-05-17T11:01:50.309Z,98962.22
2019-05-17T11:04:32.924Z,98964.34
2019-05-17T11:07:22.817Z,98967.53
2019-05-17T11:09:53.292Z,98958.18
2019-05-17T11:12:25.303Z,98963.30
2019-05-17T11:15:09.818Z,98971.27
2019-05-17T11:17:38.704Z,98964.30
2019-05-17T11:23:11.206Z,98965.41
2019-05-17T11:25:45.531Z,98962.91
2019-05-17T11:28:25.133Z,98961.86
2019-05-17T11:30:55.817Z,98963.42
2019-05-17T11:33:26.183Z,98953.16
2019-05-17T11:35:56.717Z,98954.59
2019-05-17T11:38:27.233Z,98952.38
2019-05-17T11:40:57.636Z,98950.53
2019-05-17T11:43:28.276Z,98932.98
2019-05-17T11:45:58.719Z,98944.09
2019-05-17T11:48:29.393Z,98948.72
2019-05-17T11:50:59.886Z,98951.84
2019-05-17T11:53:30.395Z,98940.66
2019-05-17T11:56:01.019Z,98942.97
2019-05-17T11:58:33.048Z,98948.25
2019-05-17T12:01:03.476Z,98944.23
2019-05-17T12:03:33.892Z,98945.91
2019-05-17T12:06:23.712Z,98947.81
2019-05-17T12:08:54.216Z,98947.68
2019-05-17T12:11:24.618Z,98940.06
2019-05-17T12:13:55.026Z,98941.52
2019-05-17T12:16:25.470Z,98942.09
2019-05-17T12:18:55.882Z,98955.38
2019-05-17T12:21:26.357Z,98945.82
2019-05-17T12:23:56.907Z,98958.38
2019-05-17T12:26:27.410Z,98951.61
2019-05-17T12:28:57.858Z,98945.91
2019-05-17T12:31:28.365Z,98935.34
2019-05-17T12:33:58.813Z,98947.81
2019-05-17T12:36:29.257Z,98941.70
2019-05-17T12:38:59.679Z,98939.39
2019-05-17T12:41:30.118Z,98932.70
2019-05-17T12:44:00.523Z,98931.30
2019-05-17T12:46:30.957Z,98939.00
2019-05-17T12:49:02.091Z,98930.42
2019-05-17T12:51:53.023Z,98934.59
2019-05-17T12:54:23.437Z,98917.75
2019-05-17T12:56:54.021Z,98915.88
2019-05-17T12:59:24.423Z,98927.96
2019-05-17T13:01:54.991Z,98922.97
2019-05-17T13:04:25.478Z,98922.88
2019-05-17T13:06:55.972Z,98923.67
2019-05-17T13:09:26.517Z,98917.83
2019-05-17T13:11:57.318Z,98916.53
2019-05-17T13:14:28.105Z,98914.30
2019-05-17T13:16:58.482Z,98906.56
2019-05-17T13:19:28.906Z,98928.75
2019-05-17T13:21:59.341Z,98918.66
2019-05-17T13:24:29.771Z,98911.97
2019-05-17T13:27:00.247Z,98910.49
2019-05-17T13:29:30.853Z,98915.38
2019-05-17T13:32:01.299Z,98906.00
2019-05-17T13:34:31.817Z,98904.83
2019-05-17T13:37:02.262Z,98903.59
2019-05-17T13:39:52.060Z,98900.80
2019-05-17T13:42:22.593Z,98916.09
2019-05-17T13:44:53.121Z,98905.73
2019-05-17T13:47:23.696Z,98903.41
2019-05-17T13:49:54.186Z,98903.52
2019-05-17T13:52:24.718Z,98913.00
2019-05-17T13:54:55.173Z,98902.08
2019-05-17T13:57:25.677Z,98907.92
2019-05-17T13:59:56.167Z,98907.91
2019-05-17T14:02:26.547Z,98901.02
2019-05-17T14:04:57.098Z,98902.79
2019-05-17T14:07:27.553Z,98897.69
2019-05-17T14:09:58.009Z,98912.23
2019-05-17T14:12:28.341Z,98906.02
2019-05-17T14:14:58.916Z,98904.20
2019-05-17T14:17:29.324Z,98900.23
2019-05-17T14:19:59.908Z,98901.46
2019-05-17T14:22:30.296Z,98896.45
2019-05-17T14:25:00.839Z,98899.89
2019-05-17T14:27:31.244Z,98905.45
2019-05-17T14:30:01.811Z,98902.16
2019-05-17T14:32:32.180Z,98899.57
2019-05-17T14:35:02.779Z,98903.84
2019-05-17T14:37:33.176Z,98898.55
2019-05-17T14:40:03.690Z,98900.71
2019-05-17T14:42:34.180Z,98896.39
2019-05-17T14:45:04.842Z,98905.78
2019-05-17T14:47:35.239Z,98909.73
2019-05-17T14:50:05.877Z,98912.02
2019-05-17T14:52:36.271Z,98901.67
2019-05-17T14:55:06.793Z,98909.19
2019-05-17T14:57:37.299Z,98911.05
2019-05-17T15:00:14.082Z,98911.59
2019-05-17T15:02:44.492Z,98912.28
2019-05-17T15:05:15.129Z,98913.51
2019-05-17T15:07:45.530Z,98907.89
2019-05-17T15:10:16.163Z,98908.48
2019-05-17T15:12:46.825Z,98907.14
2019-05-17T15:15:25.628Z,98913.81
2019-05-17T15:17:59.641Z,98911.27
2019-05-17T15:20:30.075Z,98910.51
2019-05-17T15:23:19.850Z,98908.91
2019-05-17T15:25:50.375Z,98909.03
2019-05-17T15:28:20.733Z,98903.84
2019-05-17T15:30:51.250Z,98905.13
2019-05-17T15:33:21.635Z,98903.19
2019-05-17T15:36:11.473Z,98899.45
2019-05-17T15:39:01.251Z,98912.47
2019-05-17T15:41:31.742Z,98898.39
2019-05-17T15:44:02.316Z,98899.03
2019-05-17T15:46:32.700Z,98893.91
2019-05-17T15:49:23.634Z,98898.03
2019-05-17T15:52:13.467Z,98897.86
2019-05-17T15:54:43.868Z,98883.37
2019-05-17T15:57:14.366Z,98896.06
2019-05-17T15:59:44.780Z,98887.84
2019-05-17T16:02:15.190Z,98882.16
2019-05-17T16:04:45.633Z,98886.89
2019-05-17T16:07:16.081Z,98899.95
2019-05-17T16:09:46.638Z,98896.64
2019-05-17T16:12:17.072Z,98887.80
2019-05-17T16:14:47.492Z,98883.80
2019-05-17T16:17:17.978Z,98881.05
2019-05-17T16:19:48.373Z,98880.06
2019-05-17T16:22:18.823Z,98880.56
2019-05-17T16:24:49.316Z,98870.14
2019-05-17T16:27:19.742Z,98871.77
2019-05-17T16:29:50.124Z,98880.55
2019-05-17T16:32:20.665Z,98867.02
2019-05-17T16:34:51.152Z,98871.47
2019-05-17T16:37:21.700Z,98867.66
2019-05-17T16:39:52.223Z,98873.71
2019-05-17T16:42:22.655Z,98861.34
2019-05-17T16:44:53.014Z,98859.26
2019-05-17T16:47:42.842Z,98865.12
2019-05-17T16:50:13.352Z,98865.08
2019-05-17T16:52:43.821Z,98865.02
2019-05-17T16:58:39.483Z,98866.83
2019-05-17T17:01:10.089Z,98859.92
2019-05-17T17:03:44.269Z,98861.69
2019-05-17T17:06:23.971Z,98872.21
2019-05-17T17:09:13.842Z,98867.39
2019-05-17T17:11:45.807Z,98866.23
2019-05-17T17:14:27.822Z,98878.41
2019-05-17T17:16:58.221Z,98874.98
2019-05-17T17:19:28.811Z,98882.38
2019-05-17T17:22:18.652Z,98883.17
2019-05-17T17:28:10.506Z,98879.13
2019-05-17T17:30:40.993Z,98886.33
2019-05-17T17:33:11.468Z,98882.55
2019-05-17T17:35:41.968Z,98877.12
2019-05-17T17:38:12.927Z,98878.97
2019-05-17T17:41:02.724Z,98880.88
2019-05-17T17:43:33.240Z,98876.82
2019-05-17T17:46:03.734Z,98879.19
2019-05-17T17:48:34.120Z,98871.30
2019-05-17T17:51:04.587Z,98873.94
2019-05-17T17:53:54.402Z,98875.52
2019-05-17T17:56:44.167Z,98875.47
2019-05-17T17:59:14.711Z,98876.67
2019-05-17T18:01:45.175Z,98874.58
2019-05-17T18:04:16.312Z,98878.59
2019-05-17T18:07:06.137Z,98881.11
2019-05-17T18:09:36.681Z,98877.25
2019-05-17T18:12:07.188Z,98882.68
2019-05-17T18:14:57.025Z,98886.31
2019-05-17T18:17:27.445Z,98887.28
2019-05-17T18:19:57.898Z,98886.91
2019-05-17T18:22:28.270Z,98885.78
2019-05-17T18:24:58.714Z,98886.86
2019-05-17T18:27:29.161Z,98889.22
2019-05-17T18:29:59.680Z,98886.73
2019-05-17T18:32:49.490Z,98882.11
2019-05-17T18:35:19.989Z,98881.09
2019-05-17T18:37:50.374Z,98880.23
2019-05-17T18:40:20.846Z,98889.06
2019-05-17T18:42:51.217Z,98884.61
2019-05-17T18:45:41.064Z,98889.77
2019-05-17T18:48:11.604Z,98889.73
2019-05-17T18:50:42.124Z,98887.23
2019-05-17T18:53:16.820Z,98892.72
2019-05-17T18:55:56.598Z,98898.00
2019-05-17T18:58:27.027Z,98900.25
2019-05-17T19:00:57.442Z,98898.72
2019-05-17T19:03:27.880Z,98894.28
2019-05-17T19:05:58.427Z,98904.63
2019-05-17T19:08:50.937Z,98905.84
2019-05-17T19:11:21.401Z,98910.02
2019-05-17T19:13:52.001Z,98906.61
2019-05-17T19:16:22.513Z,98901.75
2019-05-17T19:18:52.893Z,98902.25
2019-05-17T19:21:23.320Z,98901.29
2019-05-17T19:23:53.815Z,98903.00
2019-05-17T19:26:24.496Z,98908.83
2019-05-17T19:28:54.926Z,98903.62
2019-05-17T19:31:25.321Z,98906.33
2019-05-17T19:33:55.873Z,98910.84
2019-05-17T19:36:45.687Z,98905.83
2019-05-17T19:39:16.124Z,98906.41
2019-05-17T19:41:46.567Z,98903.42
2019-05-17T19:44:16.991Z,98899.86
2019-05-17T19:47:06.790Z,98899.58
2019-05-17T19:49:37.305Z,98900.36
2019-05-17T19:52:27.138Z,98895.84
2019-05-17T19:54:57.576Z,98894.83
2019-05-17T19:57:47.421Z,98901.53
2019-05-17T20:00:37.250Z,98896.49
2019-05-17T20:03:07.637Z,98898.23
2019-05-17T20:05:38.023Z,98898.55
2019-05-17T20:08:08.516Z,98896.92
2019-05-17T20:10:39.010Z,98891.48
2019-05-17T20:13:09.435Z,98895.05
2019-05-17T20:15:39.808Z,98893.78
2019-05-17T20:18:10.640Z,98897.20
2019-05-17T20:20:41.032Z,98902.55
2019-05-17T20:23:11.568Z,98900.41
2019-05-17T20:25:42.012Z,98904.22
2019-05-17T20:28:12.533Z,98906.30
2019-05-17T20:31:02.318Z,98911.30
2019-05-17T20:33:32.756Z,98906.08
2019-05-17T20:36:03.209Z,98902.78
2019-05-17T20:38:33.651Z,98910.70
2019-05-17T20:41:04.079Z,98901.83
2019-05-17T20:43:34.512Z,98903.34
2019-05-17T20:46:04.963Z,98908.11
2019-05-17T20:48:35.351Z,98900.65
2019-05-17T20:51:05.798Z,98903.41
2019-05-17T20:53:36.235Z,98900.92
2019-05-17T20:56:06.649Z,98899.91
2019-05-17T20:58:37.096Z,98896.55
2019-05-17T21:01:07.562Z,98895.77
2019-05-17T21:03:37.956Z,98894.27
2019-05-17T21:06:08.442Z,98891.93
2019-05-17T21:08:46.181Z,98890.47
2019-05-17T21:11:30.346Z,98896.64
2019-05-17T21:14:00.856Z,98899.98
2019-05-17T21:16:31.249Z,98889.05
2019-05-17T21:19:01.651Z,98899.50
2019-05-17T21:21:32.114Z,98893.75
2019-05-17T21:24:02.698Z,98887.27
2019-05-17T21:26:33.171Z,98891.60
2019-05-17T21:29:03.597Z,98889.84
2019-05-17T21:31:33.999Z,98889.81
2019-05-17T21:34:04.515Z,98893.37
2019-05-17T21:36:35.003Z,98888.37
2019-05-17T21:42:08.168Z,98891.47
2019-05-17T21:44:38.643Z,98884.95
2019-05-17T21:47:09.072Z,98893.17
2019-05-17T21:49:39.515Z,98890.88
2019-05-17T21:52:10.104Z,98887.80
2019-05-17T21:54:40.794Z,98889.16
2019-05-17T21:57:11.499Z,98882.85
2019-05-17T21:59:41.903Z,98882.91
2019-05-17T22:02:12.362Z,98889.71
2019-05-17T22:04:42.730Z,98890.43
2019-05-17T22:07:13.171Z,98890.59
2019-05-17T22:09:43.634Z,98887.10
2019-05-17T22:12:33.479Z,98883.61
2019-05-17T22:15:23.273Z,98885.34
2019-05-17T22:18:13.171Z,98883.63
2019-05-17T22:21:03.039Z,98884.38
2019-05-17T22:23:52.848Z,98883.39
2019-05-17T22:26:23.240Z,98877.09
2019-05-17T22:28:53.600Z,98872.97
2019-05-17T22:31:24.033Z,98875.59
2019-05-17T22:33:54.417Z,98877.50
2019-05-17T22:36:24.844Z,98874.53
2019-05-17T22:38:55.342Z,98878.28
2019-05-17T22:41:25.746Z,98874.88
2019-05-17T22:43:56.130Z,98874.22
2019-05-17T22:46:35.565Z,98874.22
2019-05-17T22:49:18.105Z,98876.43
2019-05-17T22:51:48.650Z,98870.48
2019-05-17T22:54:19.058Z,98875.95
2019-05-17T22:56:49.596Z,98867.25
2019-05-17T22:59:19.969Z,98864.34
2019-05-17T23:01:50.451Z,98858.30
2019-05-17T23:04:20.851Z,98866.35
2019-05-17T23:06:51.334Z,98859.89
2019-05-17T23:09:21.775Z,98856.97
2019-05-17T23:11:52.296Z,98861.72
2019-05-17T23:14:22.679Z,98857.95
2019-05-17T23:16:53.120Z,98853.83
2019-05-17T23:19:23.493Z,98853.77
2019-05-17T23:21:53.953Z,98858.83
2019-05-17T23:24:24.405Z,98855.98
2019-05-17T23:26:54.835Z,98856.11
2019-05-17T23:29:25.203Z,98853.88
2019-05-17T23:31:55.700Z,98849.02
2019-05-17T23:34:26.111Z,98858.53
2019-05-17T23:36:56.485Z,98855.81
2019-05-17T23:39:46.241Z,98850.70
2019-05-17T23:42:16.742Z,98853.70
2019-05-17T23:44:47.112Z,98846.45
2019-05-17T23:47:17.648Z,98847.63
2019-05-17T23:49:48.032Z,98842.92
2019-05-17T23:52:18.454Z,98842.98
2019-05-17T23:54:48.836Z,98845.53
2019-05-17T23:57:19.330Z,98848.30
2019-05-17T23:59:49.709Z,98839.53
